sensor_id;sensor_type;location;lat;lon;timestamp;temperature;humidity
25906;DHT22;13713;52.552;13.204;2023-04-01T00:00:24;17.20;73.20
25906;DHT22;13713;52.552;13.204;2023-04-01T00:02:50;17.20;73.20
25906;DHT22;13713;52.552;13.204;2023-04-01T00:05:16;17.20;73.20
25906;DHT22;13713;52.552;13.204;2023-04-01T00:07:42;17.20;73.10
25906;DHT22;13713;52.552;13.204;2023-04-01T00:10:10;17.20;73.10
25906;DHT22;13713;52.552;13.204;2023-04-01T00:12:37;17.20;73.20
25906;DHT22;13713;52.552;13.204;2023-04-01T00:15:05;17.20;73.20
25906;DHT22;13713;52.552;13.204;2023-04-01T00:17:31;17.10;73.10
25906;DHT22;13713;52.552;13.204;2023-04-01T00:19:57;17.20;73.20
25906;DHT22;13713;52.552;13.204;2023-04-01T00:22:24;17.10;73.10
25906;DHT22;13713;52.552;13.204;2023-04-01T00:24:50;17.10;73.10
25906;DHT22;13713;52.552;13.204;2023-04-01T00:27:16;17.20;73.10
25906;DHT22;13713;52.552;13.204;2023-04-01T00:29:43;17.10;73.10
25906;DHT22;13713;52.552;13.204;2023-04-01T00:32:09;17.20;73.20
25906;DHT22;13713;52.552;13.204;2023-04-01T00:34:35;17.10;73.10
25906;DHT22;13713;52.552;13.204;2023-04-01T00:37:00;17.10;73.10
25906;DHT22;13713;52.552;13.204;2023-04-01T00:39:32;17.20;73.20
25906;DHT22;13713;52.552;13.204;2023-04-01T00:41:59;17.10;73.20
25906;DHT22;13713;52.552;13.204;2023-04-01T00:44:28;17.10;73.20
25906;DHT22;13713;52.552;13.204;2023-04-01T00:46:54;17.10;73.20
25906;DHT22;13713;52.552;13.204;2023-04-01T00:49:23;17.10;73.20
25906;DHT22;13713;52.552;13.204;2023-04-01T00:51:53;17.10;73.10
25906;DHT22;13713;52.552;13.204;2023-04-01T00:54:21;17.10;73.10
25906;DHT22;13713;52.552;13.204;2023-04-01T00:57:12;17.10;73.10
25906;DHT22;13713;52.552;13.204;2023-04-01T00:59:42;17.10;73.10
25906;DHT22;13713;52.552;13.204;2023-04-01T01:02:11;17.10;73.10
25906;DHT22;13713;52.552;13.204;2023-04-01T01:04:37;17.10;73.20
25906;DHT22;13713;52.552;13.204;2023-04-01T01:07:20;17.10;73.10
25906;DHT22;13713;52.552;13.204;2023-04-01T01:13:01;17.10;73.20
25906;DHT22;13713;52.552;13.204;2023-04-01T01:15:41;17.10;73.10
25906;DHT22;13713;52.552;13.204;2023-04-01T01:24:12;17.10;73.10
25906;DHT22;13713;52.552;13.204;2023-04-01T01:27:17;17.10;73.10
25906;DHT22;13713;52.552;13.204;2023-04-01T01:35:46;17.10;73.20
25906;DHT22;13713;52.552;13.204;2023-04-01T01:38:21;17.10;73.10
25906;DHT22;13713;52.552;13.204;2023-04-01T01:41:09;17.00;73.10
25906;DHT22;13713;52.552;13.204;2023-04-01T01:43:41;17.00;73.10
25906;DHT22;13713;52.552;13.204;2023-04-01T01:46:13;17.10;73.10
25906;DHT22;13713;52.552;13.204;2023-04-01T01:48:41;17.10;73.10
25906;DHT22;13713;52.552;13.204;2023-04-01T01:51:08;17.10;73.10
25906;DHT22;13713;52.552;13.204;2023-04-01T01:53:35;17.10;73.20
25906;DHT22;13713;52.552;13.204;2023-04-01T01:56:01;17.00;73.00
25906;DHT22;13713;52.552;13.204;2023-04-01T01:58:32;17.10;73.10
25906;DHT22;13713;52.552;13.204;2023-04-01T02:01:03;17.00;73.10
25906;DHT22;13713;52.552;13.204;2023-04-01T02:03:33;17.10;73.20
25906;DHT22;13713;52.552;13.204;2023-04-01T02:06:01;16.90;73.00
25906;DHT22;13713;52.552;13.204;2023-04-01T02:08:35;17.10;73.20
25906;DHT22;13713;52.552;13.204;2023-04-01T02:11:07;17.10;73.20
25906;DHT22;13713;52.552;13.204;2023-04-01T02:14:01;17.00;73.10
25906;DHT22;13713;52.552;13.204;2023-04-01T02:16:41;17.00;73.10
25906;DHT22;13713;52.552;13.204;2023-04-01T02:19:10;17.10;73.20
25906;DHT22;13713;52.552;13.204;2023-04-01T02:21:39;17.00;73.10
25906;DHT22;13713;52.552;13.204;2023-04-01T02:24:09;17.00;73.10
25906;DHT22;13713;52.552;13.204;2023-04-01T02:26:36;17.00;73.10
25906;DHT22;13713;52.552;13.204;2023-04-01T02:29:02;17.00;73.10
25906;DHT22;13713;52.552;13.204;2023-04-01T02:31:31;17.00;73.10
25906;DHT22;13713;52.552;13.204;2023-04-01T02:33:57;17.00;73.10
25906;DHT22;13713;52.552;13.204;2023-04-01T02:36:24;16.90;73.10
25906;DHT22;13713;52.552;13.204;2023-04-01T02:38:52;17.00;73.20
25906;DHT22;13713;52.552;13.204;2023-04-01T02:41:18;17.10;73.20
25906;DHT22;13713;52.552;13.204;2023-04-01T02:43:43;17.00;73.10
25906;DHT22;13713;52.552;13.204;2023-04-01T02:46:09;17.00;73.90
25906;DHT22;13713;52.552;13.204;2023-04-01T02:48:35;17.00;73.10
25906;DHT22;13713;52.552;13.204;2023-04-01T02:51:01;17.00;73.10
25906;DHT22;13713;52.552;13.204;2023-04-01T02:53:26;17.00;73.10
25906;DHT22;13713;52.552;13.204;2023-04-01T02:55:52;17.00;73.10
25906;DHT22;13713;52.552;13.204;2023-04-01T02:58:18;17.00;73.10
25906;DHT22;13713;52.552;13.204;2023-04-01T03:00:44;17.00;73.10
25906;DHT22;13713;52.552;13.204;2023-04-01T03:03:10;17.00;73.10
25906;DHT22;13713;52.552;13.204;2023-04-01T03:05:35;17.00;73.20
25906;DHT22;13713;52.552;13.204;2023-04-01T03:08:02;17.00;73.10
25906;DHT22;13713;52.552;13.204;2023-04-01T03:10:28;17.00;73.10
25906;DHT22;13713;52.552;13.204;2023-04-01T03:12:53;17.00;73.20
25906;DHT22;13713;52.552;13.204;2023-04-01T03:15:19;17.00;73.20
25906;DHT22;13713;52.552;13.204;2023-04-01T03:17:45;17.00;73.10
25906;DHT22;13713;52.552;13.204;2023-04-01T03:20:13;17.00;73.10
25906;DHT22;13713;52.552;13.204;2023-04-01T03:22:39;17.00;73.10
25906;DHT22;13713;52.552;13.204;2023-04-01T03:25:05;17.00;73.10
25906;DHT22;13713;52.552;13.204;2023-04-01T03:27:31;17.00;73.10
25906;DHT22;13713;52.552;13.204;2023-04-01T03:29:57;16.90;73.10
25906;DHT22;13713;52.552;13.204;2023-04-01T03:32:22;17.00;73.10
25906;DHT22;13713;52.552;13.204;2023-04-01T03:34:48;16.90;73.10
25906;DHT22;13713;52.552;13.204;2023-04-01T03:37:14;16.90;73.10
25906;DHT22;13713;52.552;13.204;2023-04-01T03:39:40;16.90;73.10
25906;DHT22;13713;52.552;13.204;2023-04-01T03:42:05;16.90;73.10
25906;DHT22;13713;52.552;13.204;2023-04-01T03:44:33;16.90;73.10
25906;DHT22;13713;52.552;13.204;2023-04-01T03:46:59;17.00;73.10
25906;DHT22;13713;52.552;13.204;2023-04-01T03:49:26;16.90;73.10
25906;DHT22;13713;52.552;13.204;2023-04-01T03:51:51;16.90;73.10
25906;DHT22;13713;52.552;13.204;2023-04-01T03:54:18;16.90;73.10
25906;DHT22;13713;52.552;13.204;2023-04-01T03:56:45;17.00;73.20
25906;DHT22;13713;52.552;13.204;2023-04-01T03:59:12;16.90;73.10
25906;DHT22;13713;52.552;13.204;2023-04-01T04:01:37;16.90;73.10
25906;DHT22;13713;52.552;13.204;2023-04-01T04:04:03;16.90;73.10
25906;DHT22;13713;52.552;13.204;2023-04-01T04:06:29;16.90;73.10
25906;DHT22;13713;52.552;13.204;2023-04-01T04:08:55;16.90;73.10
25906;DHT22;13713;52.552;13.204;2023-04-01T04:11:21;16.90;73.10
25906;DHT22;13713;52.552;13.204;2023-04-01T04:13:50;16.90;73.10
25906;DHT22;13713;52.552;13.204;2023-04-01T04:16:17;16.90;73.10
25906;DHT22;13713;52.552;13.204;2023-04-01T04:18:48;16.90;73.10
25906;DHT22;13713;52.552;13.204;2023-04-01T04:21:14;16.90;73.20
25906;DHT22;13713;52.552;13.204;2023-04-01T04:23:41;17.00;73.20
25906;DHT22;13713;52.552;13.204;2023-04-01T04:26:10;16.90;73.10
25906;DHT22;13713;52.552;13.204;2023-04-01T04:28:36;16.90;73.10
25906;DHT22;13713;52.552;13.204;2023-04-01T04:31:02;16.90;73.10
25906;DHT22;13713;52.552;13.204;2023-04-01T04:33:31;16.90;73.10
25906;DHT22;13713;52.552;13.204;2023-04-01T04:35:58;16.90;73.10
25906;DHT22;13713;52.552;13.204;2023-04-01T04:38:25;16.90;73.10
25906;DHT22;13713;52.552;13.204;2023-04-01T04:40:51;16.80;73.00
25906;DHT22;13713;52.552;13.204;2023-04-01T04:43:17;16.90;73.10
25906;DHT22;13713;52.552;13.204;2023-04-01T04:45:44;17.00;73.10
25906;DHT22;13713;52.552;13.204;2023-04-01T04:48:12;16.90;73.10
25906;DHT22;13713;52.552;13.204;2023-04-01T04:50:49;16.90;73.10
25906;DHT22;13713;52.552;13.204;2023-04-01T04:53:17;16.90;73.20
25906;DHT22;13713;52.552;13.204;2023-04-01T04:55:48;16.90;73.10
25906;DHT22;13713;52.552;13.204;2023-04-01T04:58:22;16.90;73.10
25906;DHT22;13713;52.552;13.204;2023-04-01T05:00:48;16.90;73.10
25906;DHT22;13713;52.552;13.204;2023-04-01T05:03:25;16.90;73.20
25906;DHT22;13713;52.552;13.204;2023-04-01T05:05:52;16.90;73.10
25906;DHT22;13713;52.552;13.204;2023-04-01T05:08:19;16.90;73.10
25906;DHT22;13713;52.552;13.204;2023-04-01T05:10:45;16.90;73.10
25906;DHT22;13713;52.552;13.204;2023-04-01T05:13:11;16.90;73.10
25906;DHT22;13713;52.552;13.204;2023-04-01T05:15:37;16.90;73.10
25906;DHT22;13713;52.552;13.204;2023-04-01T05:18:03;16.90;73.10
25906;DHT22;13713;52.552;13.204;2023-04-01T05:20:29;16.90;73.10
25906;DHT22;13713;52.552;13.204;2023-04-01T05:22:56;16.80;73.10
25906;DHT22;13713;52.552;13.204;2023-04-01T05:25:22;16.80;73.10
25906;DHT22;13713;52.552;13.204;2023-04-01T05:27:48;16.90;73.10
25906;DHT22;13713;52.552;13.204;2023-04-01T05:30:14;16.90;73.10
25906;DHT22;13713;52.552;13.204;2023-04-01T05:32:51;17.00;73.20
25906;DHT22;13713;52.552;13.204;2023-04-01T05:35:17;16.80;73.10
25906;DHT22;13713;52.552;13.204;2023-04-01T05:37:43;16.90;73.10
25906;DHT22;13713;52.552;13.204;2023-04-01T05:40:09;16.80;73.00
25906;DHT22;13713;52.552;13.204;2023-04-01T05:42:35;16.80;73.00
25906;DHT22;13713;52.552;13.204;2023-04-01T05:45:01;16.80;73.10
25906;DHT22;13713;52.552;13.204;2023-04-01T05:47:49;16.80;73.00
25906;DHT22;13713;52.552;13.204;2023-04-01T05:50:15;16.80;73.00
25906;DHT22;13713;52.552;13.204;2023-04-01T05:52:41;16.80;73.00
25906;DHT22;13713;52.552;13.204;2023-04-01T05:55:07;16.80;73.00
25906;DHT22;13713;52.552;13.204;2023-04-01T05:57:32;16.80;73.00
25906;DHT22;13713;52.552;13.204;2023-04-01T05:59:58;16.80;73.00
25906;DHT22;13713;52.552;13.204;2023-04-01T06:02:24;16.80;73.00
25906;DHT22;13713;52.552;13.204;2023-04-01T06:04:55;16.80;73.00
25906;DHT22;13713;52.552;13.204;2023-04-01T06:07:27;16.80;73.00
25906;DHT22;13713;52.552;13.204;2023-04-01T06:09:54;16.80;73.10
25906;DHT22;13713;52.552;13.204;2023-04-01T06:32:06;16.80;73.00
25906;DHT22;13713;52.552;13.204;2023-04-01T06:45:32;16.80;73.00
25906;DHT22;13713;52.552;13.204;2023-04-01T06:51:28;16.80;73.00
25906;DHT22;13713;52.552;13.204;2023-04-01T06:54:36;16.80;73.00
25906;DHT22;13713;52.552;13.204;2023-04-01T06:57:35;16.80;73.00
25906;DHT22;13713;52.552;13.204;2023-04-01T07:00:22;16.80;73.00
25906;DHT22;13713;52.552;13.204;2023-04-01T07:05:43;16.80;73.00
25906;DHT22;13713;52.552;13.204;2023-04-01T07:08:17;16.90;73.00
25906;DHT22;13713;52.552;13.204;2023-04-01T07:13:36;16.80;73.00
25906;DHT22;13713;52.552;13.204;2023-04-01T07:16:15;16.80;72.90
25906;DHT22;13713;52.552;13.204;2023-04-01T07:19:05;16.80;73.00
25906;DHT22;13713;52.552;13.204;2023-04-01T07:22:02;16.80;73.00
25906;DHT22;13713;52.552;13.204;2023-04-01T07:24:48;16.80;73.00
25906;DHT22;13713;52.552;13.204;2023-04-01T07:27:14;16.80;73.00
25906;DHT22;13713;52.552;13.204;2023-04-01T07:29:42;16.70;72.90
25906;DHT22;13713;52.552;13.204;2023-04-01T07:32:29;16.80;72.90
25906;DHT22;13713;52.552;13.204;2023-04-01T07:38:08;16.80;72.90
25906;DHT22;13713;52.552;13.204;2023-04-01T07:41:01;16.80;72.90
25906;DHT22;13713;52.552;13.204;2023-04-01T07:49:17;16.80;73.00
25906;DHT22;13713;52.552;13.204;2023-04-01T07:57:14;16.80;73.00
25906;DHT22;13713;52.552;13.204;2023-04-01T08:05:26;16.80;73.00
25906;DHT22;13713;52.552;13.204;2023-04-01T08:08:16;16.80;73.00
25906;DHT22;13713;52.552;13.204;2023-04-01T08:11:31;16.70;72.90
25906;DHT22;13713;52.552;13.204;2023-04-01T08:15:01;16.80;73.00
25906;DHT22;13713;52.552;13.204;2023-04-01T08:20:47;16.80;73.00
25906;DHT22;13713;52.552;13.204;2023-04-01T08:23:22;16.80;73.10
25906;DHT22;13713;52.552;13.204;2023-04-01T08:28:39;16.80;73.00
25906;DHT22;13713;52.552;13.204;2023-04-01T08:32:11;16.80;73.10
25906;DHT22;13713;52.552;13.204;2023-04-01T08:34:20;16.80;73.10
25906;DHT22;13713;52.552;13.204;2023-04-01T08:36:57;16.80;73.10
25906;DHT22;13713;52.552;13.204;2023-04-01T08:39:31;16.80;73.10
25906;DHT22;13713;52.552;13.204;2023-04-01T08:56:33;16.70;73.00
25906;DHT22;13713;52.552;13.204;2023-04-01T08:59:15;16.80;73.10
25906;DHT22;13713;52.552;13.204;2023-04-01T09:07:44;16.80;73.10
25906;DHT22;13713;52.552;13.204;2023-04-01T09:10:22;16.70;73.10
25906;DHT22;13713;52.552;13.204;2023-04-01T09:16:38;16.70;73.00
25906;DHT22;13713;52.552;13.204;2023-04-01T09:24:42;16.70;72.90
25906;DHT22;13713;52.552;13.204;2023-04-01T09:33:17;16.70;72.90
25906;DHT22;13713;52.552;13.204;2023-04-01T09:36:18;16.70;72.90
25906;DHT22;13713;52.552;13.204;2023-04-01T09:38:55;16.70;72.90
25906;DHT22;13713;52.552;13.204;2023-04-01T09:41:29;16.70;72.90
25906;DHT22;13713;52.552;13.204;2023-04-01T09:44:18;16.70;72.90
25906;DHT22;13713;52.552;13.204;2023-04-01T09:53:02;16.60;72.70
25906;DHT22;13713;52.552;13.204;2023-04-01T10:04:42;16.70;72.70
25906;DHT22;13713;52.552;13.204;2023-04-01T10:24:00;16.70;72.50
25906;DHT22;13713;52.552;13.204;2023-04-01T10:26:36;16.70;72.50
25906;DHT22;13713;52.552;13.204;2023-04-01T10:32:32;16.70;72.40
25906;DHT22;13713;52.552;13.204;2023-04-01T10:38:29;16.70;72.40
25906;DHT22;13713;52.552;13.204;2023-04-01T10:41:34;16.70;72.30
25906;DHT22;13713;52.552;13.204;2023-04-01T10:44:49;16.70;72.40
25906;DHT22;13713;52.552;13.204;2023-04-01T10:48:08;16.70;72.30
25906;DHT22;13713;52.552;13.204;2023-04-01T10:51:01;16.70;72.30
25906;DHT22;13713;52.552;13.204;2023-04-01T11:03:28;16.60;72.00
25906;DHT22;13713;52.552;13.204;2023-04-01T11:12:14;16.60;71.90
25906;DHT22;13713;52.552;13.204;2023-04-01T11:25:56;16.60;71.70
25906;DHT22;13713;52.552;13.204;2023-04-01T11:35:02;16.60;71.60
25906;DHT22;13713;52.552;13.204;2023-04-01T11:37:37;16.60;71.50
25906;DHT22;13713;52.552;13.204;2023-04-01T11:40:43;16.60;71.40
25906;DHT22;13713;52.552;13.204;2023-04-01T11:43:37;16.60;71.40
25906;DHT22;13713;52.552;13.204;2023-04-01T11:47:03;16.60;71.40
25906;DHT22;13713;52.552;13.204;2023-04-01T12:01:10;16.60;71.20
25906;DHT22;13713;52.552;13.204;2023-04-01T12:12:41;16.60;71.00
25906;DHT22;13713;52.552;13.204;2023-04-01T12:15:32;16.60;71.00
25906;DHT22;13713;52.552;13.204;2023-04-01T12:20:50;16.60;70.80
25906;DHT22;13713;52.552;13.204;2023-04-01T12:26:44;16.60;70.80
25906;DHT22;13713;52.552;13.204;2023-04-01T12:35:02;16.50;70.60
25906;DHT22;13713;52.552;13.204;2023-04-01T12:51:38;16.50;70.50
25906;DHT22;13713;52.552;13.204;2023-04-01T13:03:17;16.50;70.40
25906;DHT22;13713;52.552;13.204;2023-04-01T13:16:53;16.50;70.30
25906;DHT22;13713;52.552;13.204;2023-04-01T13:19:22;16.50;70.30
25906;DHT22;13713;52.552;13.204;2023-04-01T13:22:09;16.50;70.30
25906;DHT22;13713;52.552;13.204;2023-04-01T13:24:59;16.50;70.30
25906;DHT22;13713;52.552;13.204;2023-04-01T13:27:42;16.50;70.20
25906;DHT22;13713;52.552;13.204;2023-04-01T13:30:26;16.50;70.00
25906;DHT22;13713;52.552;13.204;2023-04-01T13:33:13;16.50;70.10
25906;DHT22;13713;52.552;13.204;2023-04-01T13:41:21;16.40;69.80
25906;DHT22;13713;52.552;13.204;2023-04-01T13:43:57;16.40;69.70
25906;DHT22;13713;52.552;13.204;2023-04-01T13:46:34;16.50;69.80
25906;DHT22;13713;52.552;13.204;2023-04-01T14:11:19;16.40;69.50
25906;DHT22;13713;52.552;13.204;2023-04-01T14:19:49;16.40;69.40
25906;DHT22;13713;52.552;13.204;2023-04-01T14:22:17;16.40;69.40
25906;DHT22;13713;52.552;13.204;2023-04-01T14:33:43;16.40;69.30
25906;DHT22;13713;52.552;13.204;2023-04-01T14:39:07;16.40;69.20
25906;DHT22;13713;52.552;13.204;2023-04-01T14:41:45;16.40;69.30
25906;DHT22;13713;52.552;13.204;2023-04-01T14:47:38;16.40;69.20
25906;DHT22;13713;52.552;13.204;2023-04-01T14:50:15;16.40;69.20
25906;DHT22;13713;52.552;13.204;2023-04-01T14:52:51;16.30;69.10
25906;DHT22;13713;52.552;13.204;2023-04-01T14:58:14;16.30;69.00
25906;DHT22;13713;52.552;13.204;2023-04-01T15:09:36;16.30;68.80
25906;DHT22;13713;52.552;13.204;2023-04-01T15:21:11;16.30;68.50
25906;DHT22;13713;52.552;13.204;2023-04-01T15:26:39;16.30;68.50
25906;DHT22;13713;52.552;13.204;2023-04-01T15:32:01;16.30;68.40
25906;DHT22;13713;52.552;13.204;2023-04-01T15:37:05;16.20;68.20
25906;DHT22;13713;52.552;13.204;2023-04-01T15:48:01;16.20;67.90
25906;DHT22;13713;52.552;13.204;2023-04-01T15:56:24;16.20;67.80
25906;DHT22;13713;52.552;13.204;2023-04-01T16:13:42;16.20;67.60
25906;DHT22;13713;52.552;13.204;2023-04-01T16:16:28;16.10;67.50
25906;DHT22;13713;52.552;13.204;2023-04-01T16:19:18;16.20;67.50
25906;DHT22;13713;52.552;13.204;2023-04-01T16:27:25;16.10;67.30
25906;DHT22;13713;52.552;13.204;2023-04-01T16:30:17;16.10;67.20
25906;DHT22;13713;52.552;13.204;2023-04-01T16:32:57;16.10;67.20
25906;DHT22;13713;52.552;13.204;2023-04-01T16:43:51;16.10;67.00
25906;DHT22;13713;52.552;13.204;2023-04-01T16:49:24;16.10;66.90
25906;DHT22;13713;52.552;13.204;2023-04-01T16:52:30;16.00;67.60
25906;DHT22;13713;52.552;13.204;2023-04-01T16:54:59;16.00;66.80
25906;DHT22;13713;52.552;13.204;2023-04-01T16:57:52;16.00;66.70
25906;DHT22;13713;52.552;13.204;2023-04-01T17:00:48;16.00;66.80
25906;DHT22;13713;52.552;13.204;2023-04-01T17:03:27;16.00;66.70
25906;DHT22;13713;52.552;13.204;2023-04-01T17:11:19;16.00;66.40
25906;DHT22;13713;52.552;13.204;2023-04-01T17:24:35;16.00;67.10
25906;DHT22;13713;52.552;13.204;2023-04-01T17:30:02;16.00;66.30
25906;DHT22;13713;52.552;13.204;2023-04-01T17:33:30;16.00;66.30
25906;DHT22;13713;52.552;13.204;2023-04-01T17:41:54;16.00;66.10
25906;DHT22;13713;52.552;13.204;2023-04-01T17:57:46;15.90;66.00
25906;DHT22;13713;52.552;13.204;2023-04-01T18:12:07;15.90;65.80
25906;DHT22;13713;52.552;13.204;2023-04-01T18:23:14;15.90;65.80
25906;DHT22;13713;52.552;13.204;2023-04-01T18:25:47;15.90;65.60
25906;DHT22;13713;52.552;13.204;2023-04-01T18:28:38;15.90;65.60
25906;DHT22;13713;52.552;13.204;2023-04-01T18:31:16;15.90;65.70
25906;DHT22;13713;52.552;13.204;2023-04-01T18:39:07;15.90;65.60
25906;DHT22;13713;52.552;13.204;2023-04-01T18:44:22;15.80;65.40
25906;DHT22;13713;52.552;13.204;2023-04-01T18:52:33;15.80;65.30
25906;DHT22;13713;52.552;13.204;2023-04-01T18:57:52;15.70;65.10
25906;DHT22;13713;52.552;13.204;2023-04-01T19:00:32;15.80;65.10
25906;DHT22;13713;52.552;13.204;2023-04-01T19:03:18;15.80;65.00
25906;DHT22;13713;52.552;13.204;2023-04-01T19:05:48;15.80;65.10
25906;DHT22;13713;52.552;13.204;2023-04-01T19:08:41;15.80;65.00
25906;DHT22;13713;52.552;13.204;2023-04-01T19:19:24;15.70;64.70
25906;DHT22;13713;52.552;13.204;2023-04-01T19:21:58;15.70;64.70
25906;DHT22;13713;52.552;13.204;2023-04-01T19:27:25;15.70;64.70
25906;DHT22;13713;52.552;13.204;2023-04-01T19:30:10;15.70;64.60
25906;DHT22;13713;52.552;13.204;2023-04-01T19:35:44;15.70;64.50
25906;DHT22;13713;52.552;13.204;2023-04-01T19:54:30;15.60;64.20
25906;DHT22;13713;52.552;13.204;2023-04-01T20:00:02;15.60;64.10
25906;DHT22;13713;52.552;13.204;2023-04-01T20:05:28;15.60;63.90
25906;DHT22;13713;52.552;13.204;2023-04-01T20:08:10;15.60;63.90
25906;DHT22;13713;52.552;13.204;2023-04-01T20:11:08;15.60;63.80
25906;DHT22;13713;52.552;13.204;2023-04-01T20:13:41;15.60;63.90
25906;DHT22;13713;52.552;13.204;2023-04-01T20:16:12;15.60;63.70
25906;DHT22;13713;52.552;13.204;2023-04-01T20:18:45;15.60;63.70
25906;DHT22;13713;52.552;13.204;2023-04-01T20:26:25;15.50;63.50
25906;DHT22;13713;52.552;13.204;2023-04-01T20:31:43;15.50;63.50
25906;DHT22;13713;52.552;13.204;2023-04-01T20:45:34;15.50;63.30
25906;DHT22;13713;52.552;13.204;2023-04-01T20:50:59;15.40;62.90
25906;DHT22;13713;52.552;13.204;2023-04-01T20:58:53;15.40;62.90
25906;DHT22;13713;52.552;13.204;2023-04-01T21:07:12;15.40;62.80
25906;DHT22;13713;52.552;13.204;2023-04-01T21:34:25;15.30;62.00
25906;DHT22;13713;52.552;13.204;2023-04-01T21:43:17;15.30;62.00
25906;DHT22;13713;52.552;13.204;2023-04-01T21:46:02;15.30;61.90
25906;DHT22;13713;52.552;13.204;2023-04-01T21:49:10;15.30;61.70
25906;DHT22;13713;52.552;13.204;2023-04-01T21:54:35;15.20;61.60
25906;DHT22;13713;52.552;13.204;2023-04-01T22:05:41;15.20;61.40
25906;DHT22;13713;52.552;13.204;2023-04-01T22:16:39;15.20;61.30
25906;DHT22;13713;52.552;13.204;2023-04-01T22:25:15;15.20;61.10
25906;DHT22;13713;52.552;13.204;2023-04-01T22:30:23;15.20;61.10
25906;DHT22;13713;52.552;13.204;2023-04-01T22:41:14;15.20;60.90
25906;DHT22;13713;52.552;13.204;2023-04-01T22:43:44;15.20;61.70
25906;DHT22;13713;52.552;13.204;2023-04-01T22:46:23;15.20;60.80
25906;DHT22;13713;52.552;13.204;2023-04-01T22:51:39;15.20;60.70
25906;DHT22;13713;52.552;13.204;2023-04-01T22:56:49;15.20;60.60
25906;DHT22;13713;52.552;13.204;2023-04-01T22:59:36;15.20;60.60
25906;DHT22;13713;52.552;13.204;2023-04-01T23:02:15;15.20;60.50
25906;DHT22;13713;52.552;13.204;2023-04-01T23:04:43;15.20;60.50
25906;DHT22;13713;52.552;13.204;2023-04-01T23:12:49;15.10;60.30
25906;DHT22;13713;52.552;13.204;2023-04-01T23:15:17;15.10;60.30
25906;DHT22;13713;52.552;13.204;2023-04-01T23:17:56;15.10;60.30
25906;DHT22;13713;52.552;13.204;2023-04-01T23:21:03;15.10;60.20
25906;DHT22;13713;52.552;13.204;2023-04-01T23:23:58;15.10;60.20
25906;DHT22;13713;52.552;13.204;2023-04-01T23:26:52;15.10;60.20
25906;DHT22;13713;52.552;13.204;2023-04-01T23:29:21;15.10;60.10
25906;DHT22;13713;52.552;13.204;2023-04-01T23:32:01;15.10;60.10
25906;DHT22;13713;52.552;13.204;2023-04-01T23:34:34;15.10;60.10
25906;DHT22;13713;52.552;13.204;2023-04-01T23:37:19;15.10;60.10
25906;DHT22;13713;52.552;13.204;2023-04-01T23:39:51;15.10;60.00
25906;DHT22;13713;52.552;13.204;2023-04-01T23:42:25;15.10;60.10
25906;DHT22;13713;52.552;13.204;2023-04-01T23:44:55;15.10;60.00
25906;DHT22;13713;52.552;13.204;2023-04-01T23:47:30;15.10;60.70
25906;DHT22;13713;52.552;13.204;2023-04-01T23:49:59;15.10;59.90
25906;DHT22;13713;52.552;13.204;2023-04-01T23:52:29;15.10;59.90
25906;DHT22;13713;52.552;13.204;2023-04-01T23:55:03;15.10;59.90
25906;DHT22;13713;52.552;13.204;2023-04-01T23:57:35;15.00;59.80
